Wattsburg, Pennsylvania
Current Conditions -  °F | °C
As of 11:51 AM on Sunday 21 Dec 2014 (Local Time) from KERI Reporting Station
Overcast Overcast  
Wind Chill: 26°   Ceiling: 2500
Heat Index: 32°   Visibility: 10mi
Dew Point: 24°   Wind: 6mph
Humidity: 73%   Direction: 180°S
Pressure: 30.31"   Gusts: NA
Location:  42°N, 79.81°W
Report Text: KERI 211651Z 18005KT 10SM OVC025 00/M04 A3031 RMK AO2 SLP272 T00001044
Loading
Personal Weather Stations






























Interactive Weather Map New forecast layout! Learn more

10-Day Weather Forecast

Advertisements
Track Severe Weather on mobile